Terminal Aerodrome Forecast
Issued by NWS

Home | Current Version | Previous Version | Graphics & Text | Print | Product List | Glossary On
Versions: 1 2 3 4 5 6 7 8 9 10 11 12 13 14 15 16
000
FTUS43 KMPX 271700
TAFRWF
TAF
KRWF 271720Z 2718/2818 32017G30KT P6SM BKN025 OVC035
     FM272000 33013G19KT P6SM VCSH SCT020 BKN035 OVC050
     FM280000 34011KT P6SM FEW025 BKN040
     FM280600 31005KT P6SM FEW040=

USA.gov is the U.S. government's official web portal to all federal, state and local government web resources and services.